sensor_id;sensor_type;location;lat;lon;timestamp;P1;durP1;ratioP1;P2;durP2;ratioP2
37267;SDS011;23154;52.542;13.362;2023-05-06T00:01:57;12.55;;;5.57;;
37267;SDS011;23154;52.542;13.362;2023-05-06T00:04:23;13.63;;;5.78;;
37267;SDS011;23154;52.542;13.362;2023-05-06T00:06:49;15.38;;;5.72;;
37267;SDS011;23154;52.542;13.362;2023-05-06T00:09:15;15.93;;;5.40;;
37267;SDS011;23154;52.542;13.362;2023-05-06T00:11:41;14.15;;;5.28;;
37267;SDS011;23154;52.542;13.362;2023-05-06T00:14:07;14.52;;;5.22;;
37267;SDS011;23154;52.542;13.362;2023-05-06T00:16:33;16.08;;;5.40;;
37267;SDS011;23154;52.542;13.362;2023-05-06T00:19:00;14.90;;;5.30;;
37267;SDS011;23154;52.542;13.362;2023-05-06T00:21:26;14.38;;;5.53;;
37267;SDS011;23154;52.542;13.362;2023-05-06T00:23:52;13.73;;;5.30;;
37267;SDS011;23154;52.542;13.362;2023-05-06T00:26:18;13.05;;;5.40;;
37267;SDS011;23154;52.542;13.362;2023-05-06T00:28:45;14.85;;;5.00;;
37267;SDS011;23154;52.542;13.362;2023-05-06T00:31:11;15.68;;;5.32;;
37267;SDS011;23154;52.542;13.362;2023-05-06T00:33:37;13.60;;;5.45;;
37267;SDS011;23154;52.542;13.362;2023-05-06T00:36:03;15.45;;;5.25;;
37267;SDS011;23154;52.542;13.362;2023-05-06T00:38:29;14.77;;;5.80;;
37267;SDS011;23154;52.542;13.362;2023-05-06T00:40:55;15.38;;;5.22;;
37267;SDS011;23154;52.542;13.362;2023-05-06T00:43:21;12.52;;;4.93;;
37267;SDS011;23154;52.542;13.362;2023-05-06T00:45:47;15.60;;;5.30;;
37267;SDS011;23154;52.542;13.362;2023-05-06T00:48:13;13.10;;;4.75;;
37267;SDS011;23154;52.542;13.362;2023-05-06T00:50:39;15.23;;;5.20;;
37267;SDS011;23154;52.542;13.362;2023-05-06T00:53:06;15.15;;;5.15;;
37267;SDS011;23154;52.542;13.362;2023-05-06T00:55:33;13.77;;;5.03;;
37267;SDS011;23154;52.542;13.362;2023-05-06T00:57:59;12.55;;;4.60;;
37267;SDS011;23154;52.542;13.362;2023-05-06T01:00:25;17.27;;;5.10;;
37267;SDS011;23154;52.542;13.362;2023-05-06T01:02:52;12.07;;;4.72;;
37267;SDS011;23154;52.542;13.362;2023-05-06T01:05:19;18.92;;;5.82;;
37267;SDS011;23154;52.542;13.362;2023-05-06T01:13:29;18.17;;;4.85;;
37267;SDS011;23154;52.542;13.362;2023-05-06T01:16:00;17.20;;;5.70;;
37267;SDS011;23154;52.542;13.362;2023-05-06T01:18:26;13.80;;;4.93;;
37267;SDS011;23154;52.542;13.362;2023-05-06T01:20:55;14.10;;;5.18;;
37267;SDS011;23154;52.542;13.362;2023-05-06T01:23:21;19.27;;;4.78;;
37267;SDS011;23154;52.542;13.362;2023-05-06T01:25:47;14.80;;;5.07;;
37267;SDS011;23154;52.542;13.362;2023-05-06T01:28:13;15.57;;;5.20;;
37267;SDS011;23154;52.542;13.362;2023-05-06T01:30:42;15.10;;;5.25;;
37267;SDS011;23154;52.542;13.362;2023-05-06T01:33:16;16.67;;;6.13;;
37267;SDS011;23154;52.542;13.362;2023-05-06T01:38:16;15.07;;;5.10;;
37267;SDS011;23154;52.542;13.362;2023-05-06T01:40:44;16.10;;;5.55;;
37267;SDS011;23154;52.542;13.362;2023-05-06T01:43:12;14.38;;;5.20;;
37267;SDS011;23154;52.542;13.362;2023-05-06T01:45:39;17.73;;;5.53;;
37267;SDS011;23154;52.542;13.362;2023-05-06T01:48:06;18.60;;;5.38;;
37267;SDS011;23154;52.542;13.362;2023-05-06T01:50:38;17.35;;;5.32;;
37267;SDS011;23154;52.542;13.362;2023-05-06T01:53:04;14.27;;;5.13;;
37267;SDS011;23154;52.542;13.362;2023-05-06T01:55:30;15.25;;;5.28;;
37267;SDS011;23154;52.542;13.362;2023-05-06T01:57:56;14.30;;;5.07;;
37267;SDS011;23154;52.542;13.362;2023-05-06T02:00:22;14.27;;;5.10;;
37267;SDS011;23154;52.542;13.362;2023-05-06T02:02:49;17.15;;;5.13;;
37267;SDS011;23154;52.542;13.362;2023-05-06T02:05:15;17.63;;;5.50;;
37267;SDS011;23154;52.542;13.362;2023-05-06T02:07:41;13.27;;;4.72;;
37267;SDS011;23154;52.542;13.362;2023-05-06T02:10:07;16.02;;;5.38;;
37267;SDS011;23154;52.542;13.362;2023-05-06T02:12:33;16.83;;;5.30;;
37267;SDS011;23154;52.542;13.362;2023-05-06T02:14:59;17.15;;;5.20;;
37267;SDS011;23154;52.542;13.362;2023-05-06T02:17:25;16.92;;;5.22;;
37267;SDS011;23154;52.542;13.362;2023-05-06T02:19:51;17.23;;;5.22;;
37267;SDS011;23154;52.542;13.362;2023-05-06T02:22:17;12.13;;;4.22;;
37267;SDS011;23154;52.542;13.362;2023-05-06T02:24:43;15.43;;;5.25;;
37267;SDS011;23154;52.542;13.362;2023-05-06T02:27:09;19.15;;;5.90;;
37267;SDS011;23154;52.542;13.362;2023-05-06T02:29:35;15.10;;;4.47;;
37267;SDS011;23154;52.542;13.362;2023-05-06T02:32:01;16.30;;;5.13;;
37267;SDS011;23154;52.542;13.362;2023-05-06T02:34:27;15.32;;;5.90;;
37267;SDS011;23154;52.542;13.362;2023-05-06T02:36:53;16.02;;;5.30;;
37267;SDS011;23154;52.542;13.362;2023-05-06T02:39:19;16.90;;;4.80;;
37267;SDS011;23154;52.542;13.362;2023-05-06T02:41:45;16.00;;;5.13;;
37267;SDS011;23154;52.542;13.362;2023-05-06T02:44:11;13.98;;;5.20;;
37267;SDS011;23154;52.542;13.362;2023-05-06T02:46:37;18.27;;;5.60;;
37267;SDS011;23154;52.542;13.362;2023-05-06T02:49:03;16.35;;;4.80;;
37267;SDS011;23154;52.542;13.362;2023-05-06T02:51:29;18.98;;;5.95;;
37267;SDS011;23154;52.542;13.362;2023-05-06T02:53:55;15.43;;;5.35;;
37267;SDS011;23154;52.542;13.362;2023-05-06T02:56:21;17.30;;;5.15;;
37267;SDS011;23154;52.542;13.362;2023-05-06T02:58:48;16.52;;;5.45;;
37267;SDS011;23154;52.542;13.362;2023-05-06T03:01:14;14.23;;;5.25;;
37267;SDS011;23154;52.542;13.362;2023-05-06T03:03:40;20.98;;;6.18;;
37267;SDS011;23154;52.542;13.362;2023-05-06T03:06:06;16.63;;;5.10;;
37267;SDS011;23154;52.542;13.362;2023-05-06T03:08:32;14.40;;;4.97;;
37267;SDS011;23154;52.542;13.362;2023-05-06T03:10:58;13.00;;;4.75;;
37267;SDS011;23154;52.542;13.362;2023-05-06T03:13:24;16.88;;;5.80;;
37267;SDS011;23154;52.542;13.362;2023-05-06T03:15:50;14.95;;;5.13;;
37267;SDS011;23154;52.542;13.362;2023-05-06T03:18:17;16.42;;;5.05;;
37267;SDS011;23154;52.542;13.362;2023-05-06T03:20:43;16.73;;;5.43;;
37267;SDS011;23154;52.542;13.362;2023-05-06T03:23:09;15.93;;;5.35;;
37267;SDS011;23154;52.542;13.362;2023-05-06T03:25:35;17.13;;;5.47;;
37267;SDS011;23154;52.542;13.362;2023-05-06T03:28:01;18.83;;;5.05;;
37267;SDS011;23154;52.542;13.362;2023-05-06T03:30:27;16.20;;;5.82;;
37267;SDS011;23154;52.542;13.362;2023-05-06T03:32:53;17.33;;;5.25;;
37267;SDS011;23154;52.542;13.362;2023-05-06T03:35:20;15.93;;;5.35;;
37267;SDS011;23154;52.542;13.362;2023-05-06T03:37:47;18.35;;;5.65;;
37267;SDS011;23154;52.542;13.362;2023-05-06T03:40:12;15.60;;;5.68;;
37267;SDS011;23154;52.542;13.362;2023-05-06T03:42:38;17.75;;;5.68;;
37267;SDS011;23154;52.542;13.362;2023-05-06T03:45:05;14.65;;;5.03;;
37267;SDS011;23154;52.542;13.362;2023-05-06T03:47:31;19.00;;;5.13;;
37267;SDS011;23154;52.542;13.362;2023-05-06T03:49:57;17.58;;;5.75;;
37267;SDS011;23154;52.542;13.362;2023-05-06T03:52:23;16.58;;;5.07;;
37267;SDS011;23154;52.542;13.362;2023-05-06T03:54:50;16.85;;;5.25;;
37267;SDS011;23154;52.542;13.362;2023-05-06T03:57:15;16.15;;;5.88;;
37267;SDS011;23154;52.542;13.362;2023-05-06T03:59:41;17.90;;;5.57;;
37267;SDS011;23154;52.542;13.362;2023-05-06T04:02:07;19.70;;;6.00;;
37267;SDS011;23154;52.542;13.362;2023-05-06T04:04:33;17.38;;;5.00;;
37267;SDS011;23154;52.542;13.362;2023-05-06T04:06:59;17.65;;;5.63;;
37267;SDS011;23154;52.542;13.362;2023-05-06T04:09:26;19.40;;;6.15;;
37267;SDS011;23154;52.542;13.362;2023-05-06T04:11:51;14.85;;;5.55;;
37267;SDS011;23154;52.542;13.362;2023-05-06T04:14:18;15.85;;;5.50;;
37267;SDS011;23154;52.542;13.362;2023-05-06T04:16:44;19.20;;;5.57;;
37267;SDS011;23154;52.542;13.362;2023-05-06T04:19:10;17.92;;;5.47;;
37267;SDS011;23154;52.542;13.362;2023-05-06T04:21:36;16.55;;;4.97;;
37267;SDS011;23154;52.542;13.362;2023-05-06T04:24:02;17.65;;;5.25;;
37267;SDS011;23154;52.542;13.362;2023-05-06T04:26:28;16.45;;;5.35;;
37267;SDS011;23154;52.542;13.362;2023-05-06T04:28:53;15.23;;;5.55;;
37267;SDS011;23154;52.542;13.362;2023-05-06T04:31:20;13.50;;;4.78;;
37267;SDS011;23154;52.542;13.362;2023-05-06T04:33:47;13.93;;;5.43;;
37267;SDS011;23154;52.542;13.362;2023-05-06T04:36:13;14.27;;;5.18;;
37267;SDS011;23154;52.542;13.362;2023-05-06T04:38:39;13.23;;;5.00;;
37267;SDS011;23154;52.542;13.362;2023-05-06T04:41:05;17.77;;;5.75;;
37267;SDS011;23154;52.542;13.362;2023-05-06T04:43:32;16.70;;;5.80;;
37267;SDS011;23154;52.542;13.362;2023-05-06T04:45:58;18.67;;;5.68;;
37267;SDS011;23154;52.542;13.362;2023-05-06T04:48:24;16.67;;;5.50;;
37267;SDS011;23154;52.542;13.362;2023-05-06T04:50:50;18.98;;;5.63;;
37267;SDS011;23154;52.542;13.362;2023-05-06T04:53:17;15.50;;;5.28;;
37267;SDS011;23154;52.542;13.362;2023-05-06T04:55:43;15.93;;;5.43;;
37267;SDS011;23154;52.542;13.362;2023-05-06T04:58:09;17.17;;;6.07;;
37267;SDS011;23154;52.542;13.362;2023-05-06T05:00:35;14.77;;;5.10;;
37267;SDS011;23154;52.542;13.362;2023-05-06T05:03:01;14.45;;;5.20;;
37267;SDS011;23154;52.542;13.362;2023-05-06T05:05:27;16.60;;;5.68;;
37267;SDS011;23154;52.542;13.362;2023-05-06T05:07:54;15.50;;;5.13;;
37267;SDS011;23154;52.542;13.362;2023-05-06T05:10:20;14.93;;;4.85;;
37267;SDS011;23154;52.542;13.362;2023-05-06T05:12:46;17.42;;;5.30;;
37267;SDS011;23154;52.542;13.362;2023-05-06T05:15:12;16.20;;;5.72;;
37267;SDS011;23154;52.542;13.362;2023-05-06T05:17:38;17.10;;;5.68;;
37267;SDS011;23154;52.542;13.362;2023-05-06T05:20:04;15.23;;;5.60;;
37267;SDS011;23154;52.542;13.362;2023-05-06T05:22:30;18.23;;;5.72;;
37267;SDS011;23154;52.542;13.362;2023-05-06T05:24:56;15.70;;;5.20;;
37267;SDS011;23154;52.542;13.362;2023-05-06T05:27:22;18.58;;;5.13;;
37267;SDS011;23154;52.542;13.362;2023-05-06T05:29:48;19.42;;;5.53;;
37267;SDS011;23154;52.542;13.362;2023-05-06T05:32:14;19.38;;;5.40;;
37267;SDS011;23154;52.542;13.362;2023-05-06T05:34:40;18.50;;;6.05;;
37267;SDS011;23154;52.542;13.362;2023-05-06T05:37:06;13.98;;;4.80;;
37267;SDS011;23154;52.542;13.362;2023-05-06T05:39:32;16.95;;;5.65;;
37267;SDS011;23154;52.542;13.362;2023-05-06T05:41:58;15.60;;;5.45;;
37267;SDS011;23154;52.542;13.362;2023-05-06T05:44:25;13.95;;;4.85;;
37267;SDS011;23154;52.542;13.362;2023-05-06T05:46:51;16.33;;;5.65;;
37267;SDS011;23154;52.542;13.362;2023-05-06T05:49:17;15.80;;;5.70;;
37267;SDS011;23154;52.542;13.362;2023-05-06T05:51:43;15.52;;;4.85;;
37267;SDS011;23154;52.542;13.362;2023-05-06T05:54:09;15.50;;;5.22;;
37267;SDS011;23154;52.542;13.362;2023-05-06T05:56:35;15.85;;;5.80;;
37267;SDS011;23154;52.542;13.362;2023-05-06T05:59:01;16.77;;;5.50;;
37267;SDS011;23154;52.542;13.362;2023-05-06T06:01:27;16.52;;;5.32;;
37267;SDS011;23154;52.542;13.362;2023-05-06T06:03:53;16.65;;;5.65;;
37267;SDS011;23154;52.542;13.362;2023-05-06T06:06:20;15.18;;;5.53;;
37267;SDS011;23154;52.542;13.362;2023-05-06T06:08:46;16.40;;;5.53;;
37267;SDS011;23154;52.542;13.362;2023-05-06T06:11:12;15.25;;;5.20;;
37267;SDS011;23154;52.542;13.362;2023-05-06T06:13:38;17.17;;;5.57;;
37267;SDS011;23154;52.542;13.362;2023-05-06T06:16:04;17.55;;;6.03;;
37267;SDS011;23154;52.542;13.362;2023-05-06T06:18:30;15.45;;;5.57;;
37267;SDS011;23154;52.542;13.362;2023-05-06T06:20:56;15.05;;;5.18;;
37267;SDS011;23154;52.542;13.362;2023-05-06T06:23:22;14.65;;;5.22;;
37267;SDS011;23154;52.542;13.362;2023-05-06T06:25:48;15.48;;;4.68;;
37267;SDS011;23154;52.542;13.362;2023-05-06T06:28:14;16.13;;;5.85;;
37267;SDS011;23154;52.542;13.362;2023-05-06T06:30:40;15.65;;;5.07;;
37267;SDS011;23154;52.542;13.362;2023-05-06T06:33:06;18.73;;;5.90;;
37267;SDS011;23154;52.542;13.362;2023-05-06T06:35:32;14.73;;;6.25;;
37267;SDS011;23154;52.542;13.362;2023-05-06T06:37:58;14.52;;;5.30;;
37267;SDS011;23154;52.542;13.362;2023-05-06T06:40:25;17.98;;;6.10;;
37267;SDS011;23154;52.542;13.362;2023-05-06T06:42:51;16.75;;;5.70;;
37267;SDS011;23154;52.542;13.362;2023-05-06T06:45:17;19.48;;;6.43;;
37267;SDS011;23154;52.542;13.362;2023-05-06T06:47:43;14.00;;;5.20;;
37267;SDS011;23154;52.542;13.362;2023-05-06T06:50:09;19.77;;;5.60;;
37267;SDS011;23154;52.542;13.362;2023-05-06T06:52:35;14.40;;;4.90;;
37267;SDS011;23154;52.542;13.362;2023-05-06T06:55:01;15.15;;;4.80;;
37267;SDS011;23154;52.542;13.362;2023-05-06T06:57:27;14.73;;;5.15;;
37267;SDS011;23154;52.542;13.362;2023-05-06T06:59:53;16.83;;;5.38;;
37267;SDS011;23154;52.542;13.362;2023-05-06T07:02:20;16.50;;;5.30;;
37267;SDS011;23154;52.542;13.362;2023-05-06T07:04:46;19.63;;;5.38;;
37267;SDS011;23154;52.542;13.362;2023-05-06T07:07:12;18.92;;;5.40;;
37267;SDS011;23154;52.542;13.362;2023-05-06T07:09:38;14.73;;;5.10;;
37267;SDS011;23154;52.542;13.362;2023-05-06T07:12:05;18.77;;;6.28;;
37267;SDS011;23154;52.542;13.362;2023-05-06T07:14:31;13.68;;;5.07;;
37267;SDS011;23154;52.542;13.362;2023-05-06T07:16:57;17.58;;;5.88;;
37267;SDS011;23154;52.542;13.362;2023-05-06T07:19:24;15.25;;;5.63;;
37267;SDS011;23154;52.542;13.362;2023-05-06T07:21:50;15.90;;;5.75;;
37267;SDS011;23154;52.542;13.362;2023-05-06T07:24:16;13.55;;;4.50;;
37267;SDS011;23154;52.542;13.362;2023-05-06T07:26:43;16.55;;;5.88;;
37267;SDS011;23154;52.542;13.362;2023-05-06T07:29:09;15.70;;;5.55;;
37267;SDS011;23154;52.542;13.362;2023-05-06T07:31:35;16.50;;;6.03;;
37267;SDS011;23154;52.542;13.362;2023-05-06T07:34:01;17.77;;;5.93;;
37267;SDS011;23154;52.542;13.362;2023-05-06T07:36:27;16.35;;;5.38;;
37267;SDS011;23154;52.542;13.362;2023-05-06T07:38:53;19.52;;;6.47;;
37267;SDS011;23154;52.542;13.362;2023-05-06T07:41:19;17.92;;;6.00;;
37267;SDS011;23154;52.542;13.362;2023-05-06T07:43:45;17.92;;;6.07;;
37267;SDS011;23154;52.542;13.362;2023-05-06T07:46:11;18.65;;;6.45;;
37267;SDS011;23154;52.542;13.362;2023-05-06T07:48:37;14.63;;;5.72;;
37267;SDS011;23154;52.542;13.362;2023-05-06T07:51:03;17.42;;;6.38;;
37267;SDS011;23154;52.542;13.362;2023-05-06T07:53:29;19.48;;;6.88;;
37267;SDS011;23154;52.542;13.362;2023-05-06T07:55:56;16.92;;;6.03;;
37267;SDS011;23154;52.542;13.362;2023-05-06T07:58:26;18.33;;;6.97;;
37267;SDS011;23154;52.542;13.362;2023-05-06T08:00:52;16.15;;;6.97;;
37267;SDS011;23154;52.542;13.362;2023-05-06T08:03:18;17.83;;;6.60;;
37267;SDS011;23154;52.542;13.362;2023-05-06T08:05:44;18.23;;;6.93;;
37267;SDS011;23154;52.542;13.362;2023-05-06T08:08:10;15.93;;;6.85;;
37267;SDS011;23154;52.542;13.362;2023-05-06T08:10:36;17.13;;;6.65;;
37267;SDS011;23154;52.542;13.362;2023-05-06T08:13:02;17.05;;;6.75;;
37267;SDS011;23154;52.542;13.362;2023-05-06T08:15:28;18.65;;;7.10;;
37267;SDS011;23154;52.542;13.362;2023-05-06T08:17:54;17.88;;;6.50;;
37267;SDS011;23154;52.542;13.362;2023-05-06T08:20:21;20.52;;;9.20;;
37267;SDS011;23154;52.542;13.362;2023-05-06T08:22:47;21.05;;;7.57;;
37267;SDS011;23154;52.542;13.362;2023-05-06T08:25:13;22.98;;;7.63;;
37267;SDS011;23154;52.542;13.362;2023-05-06T08:27:40;17.75;;;7.22;;
37267;SDS011;23154;52.542;13.362;2023-05-06T08:30:06;20.05;;;7.40;;
37267;SDS011;23154;52.542;13.362;2023-05-06T08:32:33;19.65;;;8.32;;
37267;SDS011;23154;52.542;13.362;2023-05-06T08:34:59;23.02;;;7.53;;
37267;SDS011;23154;52.542;13.362;2023-05-06T08:37:25;19.70;;;8.45;;
37267;SDS011;23154;52.542;13.362;2023-05-06T08:39:51;21.95;;;7.65;;
37267;SDS011;23154;52.542;13.362;2023-05-06T08:42:17;21.15;;;8.50;;
37267;SDS011;23154;52.542;13.362;2023-05-06T08:44:44;18.92;;;7.38;;
37267;SDS011;23154;52.542;13.362;2023-05-06T08:47:10;23.77;;;8.93;;
37267;SDS011;23154;52.542;13.362;2023-05-06T08:49:36;20.33;;;7.85;;
37267;SDS011;23154;52.542;13.362;2023-05-06T08:52:03;19.73;;;8.27;;
37267;SDS011;23154;52.542;13.362;2023-05-06T08:54:32;20.45;;;8.55;;
37267;SDS011;23154;52.542;13.362;2023-05-06T08:56:59;23.38;;;9.02;;
37267;SDS011;23154;52.542;13.362;2023-05-06T08:59:28;19.00;;;7.88;;
37267;SDS011;23154;52.542;13.362;2023-05-06T09:01:56;23.83;;;9.32;;
37267;SDS011;23154;52.542;13.362;2023-05-06T09:04:22;20.63;;;7.72;;
37267;SDS011;23154;52.542;13.362;2023-05-06T09:06:48;22.27;;;8.13;;
37267;SDS011;23154;52.542;13.362;2023-05-06T09:09:14;21.52;;;8.18;;
37267;SDS011;23154;52.542;13.362;2023-05-06T09:11:40;21.67;;;8.35;;
37267;SDS011;23154;52.542;13.362;2023-05-06T09:14:14;20.45;;;8.93;;
37267;SDS011;23154;52.542;13.362;2023-05-06T09:16:41;23.45;;;9.75;;
37267;SDS011;23154;52.542;13.362;2023-05-06T09:19:08;19.98;;;9.55;;
37267;SDS011;23154;52.542;13.362;2023-05-06T09:21:36;19.23;;;8.10;;
37267;SDS011;23154;52.542;13.362;2023-05-06T09:24:03;20.98;;;8.30;;
37267;SDS011;23154;52.542;13.362;2023-05-06T09:26:30;21.05;;;8.77;;
37267;SDS011;23154;52.542;13.362;2023-05-06T09:28:56;18.20;;;7.80;;
37267;SDS011;23154;52.542;13.362;2023-05-06T09:31:23;18.00;;;8.02;;
37267;SDS011;23154;52.542;13.362;2023-05-06T09:33:50;20.17;;;9.02;;
37267;SDS011;23154;52.542;13.362;2023-05-06T09:36:16;21.05;;;8.88;;
37267;SDS011;23154;52.542;13.362;2023-05-06T09:38:42;19.13;;;8.68;;
37267;SDS011;23154;52.542;13.362;2023-05-06T09:41:08;19.95;;;7.97;;
37267;SDS011;23154;52.542;13.362;2023-05-06T09:43:35;19.25;;;7.55;;
37267;SDS011;23154;52.542;13.362;2023-05-06T09:46:06;19.85;;;7.85;;
37267;SDS011;23154;52.542;13.362;2023-05-06T09:48:33;18.67;;;7.82;;
37267;SDS011;23154;52.542;13.362;2023-05-06T09:50:59;18.38;;;7.20;;
37267;SDS011;23154;52.542;13.362;2023-05-06T09:53:26;19.05;;;8.13;;
37267;SDS011;23154;52.542;13.362;2023-05-06T09:55:53;21.23;;;8.02;;
37267;SDS011;23154;52.542;13.362;2023-05-06T09:58:22;19.42;;;8.20;;
37267;SDS011;23154;52.542;13.362;2023-05-06T10:00:49;21.48;;;8.15;;
37267;SDS011;23154;52.542;13.362;2023-05-06T10:03:16;16.77;;;7.13;;
37267;SDS011;23154;52.542;13.362;2023-05-06T10:05:43;17.83;;;6.80;;
37267;SDS011;23154;52.542;13.362;2023-05-06T10:08:10;15.73;;;6.13;;
37267;SDS011;23154;52.542;13.362;2023-05-06T10:10:42;17.42;;;6.45;;
37267;SDS011;23154;52.542;13.362;2023-05-06T10:13:09;17.70;;;7.32;;
37267;SDS011;23154;52.542;13.362;2023-05-06T10:15:35;17.90;;;7.28;;
37267;SDS011;23154;52.542;13.362;2023-05-06T10:18:02;17.33;;;7.20;;
37267;SDS011;23154;52.542;13.362;2023-05-06T10:20:30;16.55;;;6.70;;
37267;SDS011;23154;52.542;13.362;2023-05-06T10:25:43;16.88;;;6.60;;
37267;SDS011;23154;52.542;13.362;2023-05-06T10:28:12;16.50;;;7.10;;
37267;SDS011;23154;52.542;13.362;2023-05-06T10:30:38;15.68;;;6.38;;
37267;SDS011;23154;52.542;13.362;2023-05-06T10:33:08;16.52;;;6.32;;
37267;SDS011;23154;52.542;13.362;2023-05-06T10:38:13;16.80;;;6.72;;
37267;SDS011;23154;52.542;13.362;2023-05-06T10:40:41;15.27;;;6.28;;
37267;SDS011;23154;52.542;13.362;2023-05-06T10:48:37;17.50;;;6.40;;
37267;SDS011;23154;52.542;13.362;2023-05-06T10:51:20;14.80;;;6.00;;
37267;SDS011;23154;52.542;13.362;2023-05-06T10:56:24;15.60;;;6.45;;
37267;SDS011;23154;52.542;13.362;2023-05-06T10:58:50;15.48;;;6.13;;
37267;SDS011;23154;52.542;13.362;2023-05-06T11:01:19;16.65;;;6.28;;
37267;SDS011;23154;52.542;13.362;2023-05-06T11:03:45;16.05;;;6.20;;
37267;SDS011;23154;52.542;13.362;2023-05-06T11:06:12;16.75;;;5.80;;
37267;SDS011;23154;52.542;13.362;2023-05-06T11:08:38;18.60;;;7.25;;
37267;SDS011;23154;52.542;13.362;2023-05-06T11:12:05;13.75;;;5.45;;
37267;SDS011;23154;52.542;13.362;2023-05-06T11:14:10;15.15;;;5.97;;
37267;SDS011;23154;52.542;13.362;2023-05-06T11:16:56;16.33;;;5.78;;
37267;SDS011;23154;52.542;13.362;2023-05-06T11:19:24;16.67;;;5.45;;
37267;SDS011;23154;52.542;13.362;2023-05-06T11:21:51;13.95;;;4.97;;
37267;SDS011;23154;52.542;13.362;2023-05-06T11:24:24;16.25;;;5.57;;
37267;SDS011;23154;52.542;13.362;2023-05-06T11:26:50;13.60;;;4.80;;
37267;SDS011;23154;52.542;13.362;2023-05-06T11:29:17;12.88;;;4.40;;
37267;SDS011;23154;52.542;13.362;2023-05-06T11:31:44;16.25;;;5.18;;
37267;SDS011;23154;52.542;13.362;2023-05-06T11:34:11;13.20;;;5.00;;
37267;SDS011;23154;52.542;13.362;2023-05-06T11:36:47;20.67;;;7.65;;
37267;SDS011;23154;52.542;13.362;2023-05-06T11:39:13;14.15;;;5.05;;
37267;SDS011;23154;52.542;13.362;2023-05-06T11:41:39;12.82;;;4.70;;
37267;SDS011;23154;52.542;13.362;2023-05-06T11:44:06;11.55;;;4.63;;
37267;SDS011;23154;52.542;13.362;2023-05-06T11:46:33;11.38;;;4.05;;
37267;SDS011;23154;52.542;13.362;2023-05-06T11:48:59;12.77;;;4.78;;
37267;SDS011;23154;52.542;13.362;2023-05-06T11:51:26;10.38;;;4.13;;
37267;SDS011;23154;52.542;13.362;2023-05-06T11:54:05;8.02;;;3.53;;
37267;SDS011;23154;52.542;13.362;2023-05-06T11:56:41;10.15;;;4.03;;
37267;SDS011;23154;52.542;13.362;2023-05-06T11:59:07;10.77;;;4.07;;
37267;SDS011;23154;52.542;13.362;2023-05-06T12:01:34;11.75;;;3.95;;
37267;SDS011;23154;52.542;13.362;2023-05-06T12:04:00;10.02;;;4.00;;
37267;SDS011;23154;52.542;13.362;2023-05-06T12:06:31;10.63;;;3.92;;
37267;SDS011;23154;52.542;13.362;2023-05-06T12:11:23;8.20;;;3.38;;
37267;SDS011;23154;52.542;13.362;2023-05-06T12:13:49;10.98;;;3.72;;
37267;SDS011;23154;52.542;13.362;2023-05-06T12:16:19;13.63;;;5.13;;
37267;SDS011;23154;52.542;13.362;2023-05-06T12:18:47;12.10;;;4.38;;
37267;SDS011;23154;52.542;13.362;2023-05-06T12:21:13;10.57;;;4.30;;
37267;SDS011;23154;52.542;13.362;2023-05-06T12:23:49;10.63;;;4.03;;
37267;SDS011;23154;52.542;13.362;2023-05-06T12:26:16;9.45;;;4.03;;
37267;SDS011;23154;52.542;13.362;2023-05-06T12:28:43;9.00;;;3.97;;
37267;SDS011;23154;52.542;13.362;2023-05-06T12:31:16;9.95;;;3.90;;
37267;SDS011;23154;52.542;13.362;2023-05-06T12:33:43;10.25;;;3.90;;
37267;SDS011;23154;52.542;13.362;2023-05-06T12:36:10;11.57;;;3.85;;
37267;SDS011;23154;52.542;13.362;2023-05-06T12:38:36;12.93;;;4.18;;
37267;SDS011;23154;52.542;13.362;2023-05-06T12:41:02;9.43;;;3.53;;
37267;SDS011;23154;52.542;13.362;2023-05-06T12:43:29;11.40;;;4.10;;
37267;SDS011;23154;52.542;13.362;2023-05-06T12:46:01;8.48;;;3.50;;
37267;SDS011;23154;52.542;13.362;2023-05-06T12:48:28;9.07;;;3.75;;
37267;SDS011;23154;52.542;13.362;2023-05-06T12:50:54;8.48;;;3.58;;
37267;SDS011;23154;52.542;13.362;2023-05-06T12:53:31;12.50;;;3.97;;
37267;SDS011;23154;52.542;13.362;2023-05-06T12:55:57;10.80;;;3.80;;
37267;SDS011;23154;52.542;13.362;2023-05-06T12:58:23;10.20;;;4.07;;
37267;SDS011;23154;52.542;13.362;2023-05-06T13:00:49;7.88;;;3.53;;
37267;SDS011;23154;52.542;13.362;2023-05-06T13:03:16;11.48;;;3.97;;
37267;SDS011;23154;52.542;13.362;2023-05-06T13:05:43;12.15;;;4.95;;
37267;SDS011;23154;52.542;13.362;2023-05-06T13:08:10;12.32;;;4.78;;
37267;SDS011;23154;52.542;13.362;2023-05-06T13:10:36;13.32;;;5.00;;
37267;SDS011;23154;52.542;13.362;2023-05-06T13:13:02;13.75;;;4.25;;
37267;SDS011;23154;52.542;13.362;2023-05-06T13:15:28;12.32;;;4.28;;
37267;SDS011;23154;52.542;13.362;2023-05-06T13:17:55;12.57;;;4.60;;
37267;SDS011;23154;52.542;13.362;2023-05-06T13:20:21;12.57;;;4.70;;
37267;SDS011;23154;52.542;13.362;2023-05-06T13:22:47;9.57;;;4.43;;
37267;SDS011;23154;52.542;13.362;2023-05-06T13:25:13;12.38;;;4.53;;
37267;SDS011;23154;52.542;13.362;2023-05-06T13:27:39;13.40;;;4.72;;
37267;SDS011;23154;52.542;13.362;2023-05-06T13:30:05;10.93;;;4.15;;
37267;SDS011;23154;52.542;13.362;2023-05-06T13:32:32;11.07;;;4.03;;
37267;SDS011;23154;52.542;13.362;2023-05-06T13:34:58;13.50;;;4.28;;
37267;SDS011;23154;52.542;13.362;2023-05-06T13:37:24;10.20;;;4.32;;
37267;SDS011;23154;52.542;13.362;2023-05-06T13:39:50;10.63;;;4.45;;
37267;SDS011;23154;52.542;13.362;2023-05-06T13:42:16;12.48;;;4.38;;
37267;SDS011;23154;52.542;13.362;2023-05-06T13:44:42;8.52;;;3.70;;
37267;SDS011;23154;52.542;13.362;2023-05-06T13:47:09;9.77;;;3.90;;
37267;SDS011;23154;52.542;13.362;2023-05-06T13:49:35;11.00;;;3.60;;
37267;SDS011;23154;52.542;13.362;2023-05-06T13:52:01;9.73;;;3.80;;
37267;SDS011;23154;52.542;13.362;2023-05-06T13:54:27;10.45;;;3.70;;
37267;SDS011;23154;52.542;13.362;2023-05-06T13:56:53;13.68;;;4.18;;
37267;SDS011;23154;52.542;13.362;2023-05-06T13:59:19;10.55;;;3.95;;
37267;SDS011;23154;52.542;13.362;2023-05-06T14:01:45;8.20;;;3.65;;
37267;SDS011;23154;52.542;13.362;2023-05-06T14:04:11;8.63;;;3.45;;
37267;SDS011;23154;52.542;13.362;2023-05-06T14:06:37;7.50;;;3.45;;
37267;SDS011;23154;52.542;13.362;2023-05-06T14:09:03;7.88;;;3.20;;
37267;SDS011;23154;52.542;13.362;2023-05-06T14:11:29;7.70;;;3.47;;
37267;SDS011;23154;52.542;13.362;2023-05-06T14:13:55;9.10;;;3.55;;
37267;SDS011;23154;52.542;13.362;2023-05-06T14:16:21;14.35;;;4.95;;
37267;SDS011;23154;52.542;13.362;2023-05-06T14:18:47;10.40;;;3.80;;
37267;SDS011;23154;52.542;13.362;2023-05-06T14:21:13;8.95;;;4.07;;
37267;SDS011;23154;52.542;13.362;2023-05-06T14:23:40;10.77;;;3.58;;
37267;SDS011;23154;52.542;13.362;2023-05-06T14:26:06;7.97;;;3.60;;
37267;SDS011;23154;52.542;13.362;2023-05-06T14:28:32;8.88;;;3.67;;
37267;SDS011;23154;52.542;13.362;2023-05-06T14:30:58;9.75;;;4.07;;
37267;SDS011;23154;52.542;13.362;2023-05-06T14:33:24;8.45;;;3.42;;
37267;SDS011;23154;52.542;13.362;2023-05-06T14:35:50;9.35;;;3.58;;
37267;SDS011;23154;52.542;13.362;2023-05-06T14:38:16;9.55;;;3.92;;
37267;SDS011;23154;52.542;13.362;2023-05-06T14:40:43;8.55;;;3.40;;
37267;SDS011;23154;52.542;13.362;2023-05-06T14:43:09;7.80;;;3.45;;
37267;SDS011;23154;52.542;13.362;2023-05-06T14:45:35;13.25;;;4.07;;